createdAt,value
2022-12-31T00:00:11.544Z,13.31
2022-12-31T00:02:39.390Z,13.09
2022-12-31T00:05:08.251Z,13.36
2022-12-31T00:10:03.444Z,13.26
2022-12-31T00:12:32.498Z,13.16
2022-12-31T00:15:00.270Z,12.95
2022-12-31T00:17:28.052Z,13.25
2022-12-31T00:19:55.779Z,13.20
2022-12-31T00:22:23.476Z,13.10
2022-12-31T00:24:51.179Z,13.41
2022-12-31T00:27:19.007Z,13.55
2022-12-31T00:29:48.076Z,13.61
2022-12-31T00:32:15.782Z,13.24
2022-12-31T00:34:43.545Z,13.23
2022-12-31T00:37:11.222Z,13.42
2022-12-31T00:39:38.961Z,13.64
2022-12-31T00:42:06.795Z,13.64
2022-12-31T00:44:34.503Z,13.73
2022-12-31T00:47:03.626Z,13.80
2022-12-31T00:49:31.446Z,13.28
2022-12-31T00:51:59.237Z,13.63
2022-12-31T00:54:27.053Z,14.01
2022-12-31T00:56:54.798Z,13.79
2022-12-31T00:59:22.730Z,14.15
2022-12-31T01:01:51.076Z,13.84
2022-12-31T01:04:21.844Z,14.20
2022-12-31T01:06:49.671Z,13.99
2022-12-31T01:09:18.463Z,13.92
2022-12-31T01:11:46.395Z,13.99
2022-12-31T01:14:16.335Z,14.01
2022-12-31T01:16:45.887Z,14.30
2022-12-31T01:19:17.129Z,13.98
2022-12-31T01:21:47.517Z,14.39
2022-12-31T01:24:15.765Z,13.94
2022-12-31T01:26:43.845Z,14.02
2022-12-31T01:29:12.002Z,14.35
2022-12-31T01:31:41.104Z,14.25
2022-12-31T01:34:09.126Z,14.16
2022-12-31T01:36:38.495Z,14.40
2022-12-31T01:39:09.421Z,14.72
2022-12-31T01:41:39.853Z,14.15
2022-12-31T01:44:40.745Z,14.37
2022-12-31T01:47:15.030Z,14.09
2022-12-31T01:49:45.830Z,14.35
2022-12-31T01:52:18.710Z,14.33
2022-12-31T01:54:53.067Z,14.23
2022-12-31T01:57:22.024Z,14.36
2022-12-31T01:59:49.765Z,14.64
2022-12-31T02:02:18.189Z,15.03
2022-12-31T02:04:46.360Z,14.43
2022-12-31T02:07:14.150Z,14.55
2022-12-31T02:09:43.690Z,14.63
2022-12-31T02:12:13.101Z,14.57
2022-12-31T02:14:45.274Z,14.41
2022-12-31T02:17:23.527Z,14.38
2022-12-31T02:20:32.184Z,14.36
2022-12-31T02:23:42.958Z,14.00
2022-12-31T02:26:44.784Z,13.99
2022-12-31T02:29:58.796Z,14.08
2022-12-31T02:32:37.383Z,13.81
2022-12-31T02:35:10.946Z,14.06
2022-12-31T02:37:40.653Z,13.88
2022-12-31T02:40:12.097Z,14.29
2022-12-31T02:42:39.775Z,14.45
2022-12-31T02:45:09.853Z,14.76
2022-12-31T02:47:51.182Z,14.31
2022-12-31T02:50:29.459Z,14.69
2022-12-31T02:53:14.234Z,14.58
2022-12-31T02:55:50.309Z,14.87
2022-12-31T02:58:43.980Z,14.60
2022-12-31T03:01:30.231Z,14.74
2022-12-31T03:04:23.765Z,14.76
2022-12-31T03:06:52.192Z,14.79
2022-12-31T03:09:19.924Z,15.00
2022-12-31T03:12:05.657Z,14.82
2022-12-31T03:14:33.294Z,14.79
2022-12-31T03:17:00.945Z,15.01
2022-12-31T03:19:47.655Z,14.92
2022-12-31T03:22:31.048Z,15.11
2022-12-31T03:25:19.289Z,14.80
2022-12-31T03:27:48.132Z,15.07
2022-12-31T03:30:18.825Z,15.06
2022-12-31T03:32:48.527Z,15.17
2022-12-31T03:35:20.271Z,14.97
2022-12-31T03:37:49.360Z,15.06
2022-12-31T03:40:18.308Z,14.86
2022-12-31T03:42:46.251Z,14.64
2022-12-31T03:45:14.976Z,14.56
2022-12-31T03:47:43.300Z,14.41
2022-12-31T03:50:13.388Z,14.21
2022-12-31T03:52:42.665Z,14.57
2022-12-31T03:55:11.345Z,14.34
2022-12-31T03:57:39.396Z,14.11
2022-12-31T04:00:10.708Z,14.16
2022-12-31T04:02:38.669Z,14.63
2022-12-31T04:05:07.479Z,14.47
2022-12-31T04:07:35.343Z,14.28
2022-12-31T04:10:05.557Z,14.36
2022-12-31T04:12:33.753Z,14.17
2022-12-31T04:15:01.917Z,14.48
2022-12-31T04:17:29.722Z,13.89
2022-12-31T04:19:57.503Z,14.21
2022-12-31T04:22:25.258Z,14.62
2022-12-31T04:24:53.055Z,14.48
2022-12-31T04:27:22.298Z,14.28
2022-12-31T04:29:49.982Z,14.42
2022-12-31T04:32:17.713Z,14.68
2022-12-31T04:34:45.441Z,14.62
2022-12-31T04:37:13.147Z,14.36
2022-12-31T04:39:40.888Z,14.08
2022-12-31T04:42:08.539Z,14.11
2022-12-31T04:44:37.613Z,13.85
2022-12-31T04:47:05.367Z,13.45
2022-12-31T04:49:33.021Z,13.91
2022-12-31T04:52:00.697Z,14.34
2022-12-31T04:54:28.439Z,14.42
2022-12-31T04:56:56.149Z,14.31
2022-12-31T04:59:23.834Z,14.28
2022-12-31T05:01:53.038Z,14.32
2022-12-31T05:04:20.946Z,14.10
2022-12-31T05:06:48.645Z,13.91
2022-12-31T05:09:16.413Z,14.08
2022-12-31T05:11:44.186Z,13.63
2022-12-31T05:14:12.092Z,13.86
2022-12-31T05:16:39.970Z,13.48
2022-12-31T05:19:09.635Z,14.02
2022-12-31T05:21:37.659Z,14.02
2022-12-31T05:24:05.900Z,13.76
2022-12-31T05:26:33.661Z,13.98
2022-12-31T05:29:01.497Z,13.82
2022-12-31T05:31:29.285Z,13.92
2022-12-31T05:33:57.343Z,14.11
2022-12-31T05:36:26.696Z,13.68
2022-12-31T05:38:54.447Z,13.88
2022-12-31T05:41:22.212Z,13.55
2022-12-31T05:43:51.413Z,13.61
2022-12-31T05:46:19.243Z,13.91
2022-12-31T05:48:47.024Z,13.28
2022-12-31T05:51:14.779Z,12.97
2022-12-31T05:53:44.029Z,13.50
2022-12-31T05:56:11.727Z,13.70
2022-12-31T05:58:39.476Z,13.36
2022-12-31T06:01:07.230Z,13.69
2022-12-31T06:03:34.959Z,13.73
2022-12-31T06:06:02.691Z,13.72
2022-12-31T06:08:30.373Z,13.96
2022-12-31T06:10:59.405Z,13.60
2022-12-31T06:13:27.124Z,14.19
2022-12-31T06:15:54.903Z,14.31
2022-12-31T06:18:22.780Z,13.93
2022-12-31T06:20:50.550Z,13.94
2022-12-31T06:23:18.293Z,13.51
2022-12-31T06:25:46.034Z,13.24
2022-12-31T06:28:20.151Z,13.57
2022-12-31T06:30:48.850Z,13.42
2022-12-31T06:33:16.575Z,13.28
2022-12-31T06:35:44.315Z,13.57
2022-12-31T06:38:12.012Z,13.69
2022-12-31T06:40:39.728Z,13.49
2022-12-31T06:43:07.498Z,13.29
2022-12-31T06:45:36.630Z,13.44
2022-12-31T06:48:04.666Z,13.16
2022-12-31T06:50:32.574Z,13.10
2022-12-31T06:53:00.566Z,13.03
2022-12-31T06:55:29.078Z,13.23
2022-12-31T06:57:57.611Z,13.38
2022-12-31T07:00:25.682Z,13.01
2022-12-31T07:03:17.977Z,13.21
2022-12-31T07:05:48.147Z,13.00
2022-12-31T07:08:38.020Z,13.51
2022-12-31T07:11:15.337Z,13.18
2022-12-31T07:14:04.675Z,13.18
2022-12-31T07:16:54.075Z,12.91
2022-12-31T07:19:34.565Z,12.84
2022-12-31T07:22:04.062Z,12.95
2022-12-31T07:24:32.311Z,13.29
2022-12-31T07:27:11.770Z,12.67
2022-12-31T07:29:57.705Z,12.97
2022-12-31T07:32:40.313Z,13.15
2022-12-31T07:35:19.801Z,12.96
2022-12-31T07:37:53.469Z,13.10
2022-12-31T07:40:27.973Z,13.24
2022-12-31T07:43:08.368Z,13.23
2022-12-31T07:45:42.557Z,13.20
2022-12-31T07:48:22.961Z,13.33
2022-12-31T07:50:54.415Z,13.30
2022-12-31T07:53:23.043Z,13.46
2022-12-31T07:55:55.776Z,13.56
2022-12-31T07:58:30.288Z,13.71
2022-12-31T08:00:59.305Z,13.70
2022-12-31T08:03:46.487Z,13.36
2022-12-31T08:06:23.858Z,13.82
2022-12-31T08:08:58.074Z,13.36
2022-12-31T08:11:31.041Z,13.45
2022-12-31T08:14:02.626Z,13.34
2022-12-31T08:16:31.295Z,13.11
2022-12-31T08:18:59.628Z,13.55
2022-12-31T08:21:42.383Z,13.43
2022-12-31T08:24:20.361Z,14.02
2022-12-31T08:26:58.777Z,13.49
2022-12-31T08:29:36.111Z,13.70
2022-12-31T08:32:13.118Z,13.42
2022-12-31T08:34:53.530Z,13.94
2022-12-31T08:37:31.083Z,13.73
2022-12-31T08:40:11.435Z,13.41
2022-12-31T08:42:49.249Z,13.86
2022-12-31T08:45:26.498Z,13.78
2022-12-31T08:48:02.454Z,14.16
2022-12-31T08:50:31.177Z,14.12
2022-12-31T08:53:01.348Z,14.24
2022-12-31T08:55:29.794Z,14.56
2022-12-31T08:58:10.963Z,14.67
2022-12-31T09:00:39.959Z,14.49
2022-12-31T09:03:23.560Z,14.31
2022-12-31T09:05:59.305Z,13.91
2022-12-31T09:08:42.623Z,13.45
2022-12-31T09:11:22.551Z,14.09
2022-12-31T09:14:07.685Z,14.19
2022-12-31T09:16:49.706Z,13.83
2022-12-31T09:19:17.507Z,14.22
2022-12-31T09:21:45.918Z,14.15
2022-12-31T09:24:16.740Z,13.68
2022-12-31T09:26:58.291Z,13.91
2022-12-31T09:29:38.785Z,14.12
2022-12-31T09:32:13.844Z,14.37
2022-12-31T09:34:47.802Z,14.25
2022-12-31T09:37:19.233Z,13.69
2022-12-31T09:39:49.419Z,13.60
2022-12-31T09:42:39.826Z,13.80
2022-12-31T09:45:29.583Z,13.71
2022-12-31T09:48:31.726Z,14.08
2022-12-31T09:51:09.823Z,13.70
2022-12-31T09:53:42.321Z,13.57
2022-12-31T09:56:21.554Z,14.17
2022-12-31T09:59:01.232Z,14.14
2022-12-31T10:01:47.910Z,13.99
2022-12-31T10:04:39.832Z,13.71
2022-12-31T10:07:22.233Z,13.98
2022-12-31T10:10:00.839Z,13.99
2022-12-31T10:12:46.609Z,13.65
2022-12-31T10:15:36.516Z,13.76
2022-12-31T10:18:12.884Z,13.70
2022-12-31T10:20:55.978Z,14.00
2022-12-31T10:23:52.282Z,13.81
2022-12-31T10:26:53.387Z,13.94
2022-12-31T10:29:37.395Z,13.86
2022-12-31T10:32:17.197Z,14.62
2022-12-31T10:34:56.921Z,14.85
2022-12-31T10:37:29.914Z,14.60
2022-12-31T10:40:11.592Z,14.42
2022-12-31T10:43:08.064Z,14.88
2022-12-31T10:46:17.643Z,14.03
2022-12-31T10:49:16.293Z,14.39
2022-12-31T10:52:18.535Z,14.40
2022-12-31T10:55:24.851Z,14.27
2022-12-31T10:58:21.475Z,14.68
2022-12-31T11:00:59.835Z,14.35
2022-12-31T11:04:04.670Z,14.51
2022-12-31T11:07:15.319Z,14.76
2022-12-31T11:10:22.440Z,14.65
2022-12-31T11:13:17.238Z,14.63
2022-12-31T11:16:09.136Z,14.42
2022-12-31T11:18:44.837Z,14.64
2022-12-31T11:21:28.297Z,14.83
2022-12-31T11:24:06.865Z,15.00
2022-12-31T11:26:51.329Z,15.07
2022-12-31T11:29:38.374Z,14.80
2022-12-31T11:32:24.952Z,15.08
2022-12-31T11:35:29.376Z,14.90
2022-12-31T11:38:11.062Z,14.74
2022-12-31T11:40:43.021Z,14.89
2022-12-31T11:43:23.469Z,15.06
2022-12-31T11:46:08.274Z,15.42
2022-12-31T11:48:44.579Z,15.03
2022-12-31T11:51:36.847Z,15.32
2022-12-31T11:54:46.453Z,15.28
2022-12-31T11:57:23.435Z,15.38
2022-12-31T11:59:55.534Z,15.66
2022-12-31T12:02:27.827Z,15.43
2022-12-31T12:05:08.294Z,15.46
2022-12-31T12:07:38.304Z,15.40
2022-12-31T12:10:20.420Z,15.57
2022-12-31T12:12:48.127Z,15.19
2022-12-31T12:15:21.273Z,15.41
2022-12-31T12:17:53.872Z,15.31
2022-12-31T12:20:29.139Z,15.10
2022-12-31T12:22:58.879Z,15.32
2022-12-31T12:25:29.069Z,15.41
2022-12-31T12:27:56.785Z,15.24
2022-12-31T12:30:27.416Z,16.02
2022-12-31T12:32:56.810Z,15.58
2022-12-31T12:35:28.606Z,15.69
2022-12-31T12:38:01.013Z,16.08
2022-12-31T12:40:33.839Z,15.74
2022-12-31T12:43:03.438Z,15.90
2022-12-31T12:45:46.377Z,16.09
2022-12-31T12:48:21.803Z,15.84
2022-12-31T12:50:51.064Z,15.77
2022-12-31T12:53:36.954Z,15.79
2022-12-31T12:56:18.735Z,15.88
2022-12-31T12:58:59.750Z,15.42
2022-12-31T13:01:36.701Z,15.87
2022-12-31T13:04:41.697Z,16.00
2022-12-31T13:07:33.673Z,16.09
2022-12-31T13:10:21.857Z,15.59
2022-12-31T13:13:23.354Z,15.69
2022-12-31T13:15:51.904Z,15.53
2022-12-31T13:18:30.979Z,15.61
2022-12-31T13:21:04.378Z,15.94
2022-12-31T13:23:42.658Z,15.55
2022-12-31T13:26:16.217Z,15.99
2022-12-31T13:28:47.748Z,15.90
2022-12-31T13:31:19.105Z,16.07
2022-12-31T13:33:52.382Z,16.27
2022-12-31T13:36:23.204Z,15.95
2022-12-31T13:38:54.032Z,15.67
2022-12-31T13:41:25.972Z,15.74
2022-12-31T13:43:59.537Z,15.87
2022-12-31T13:46:37.840Z,16.00
2022-12-31T13:49:13.880Z,15.89
2022-12-31T13:51:45.518Z,15.88
2022-12-31T13:54:25.702Z,15.63
2022-12-31T13:56:55.124Z,16.01
2022-12-31T13:59:29.314Z,15.88
2022-12-31T14:02:02.948Z,16.05
2022-12-31T14:04:37.312Z,15.88
2022-12-31T14:07:11.678Z,15.93
2022-12-31T14:09:40.754Z,15.91
2022-12-31T14:12:28.162Z,16.05
2022-12-31T14:15:04.091Z,15.71
2022-12-31T14:17:39.152Z,15.56
2022-12-31T14:20:19.258Z,15.55
2022-12-31T14:22:54.930Z,16.08
2022-12-31T14:25:29.831Z,16.09
2022-12-31T14:27:59.269Z,15.88
2022-12-31T14:30:31.782Z,16.02
2022-12-31T14:33:36.262Z,15.83
2022-12-31T14:36:14.144Z,15.84
2022-12-31T14:38:56.029Z,15.81
2022-12-31T14:41:36.511Z,15.99
2022-12-31T14:44:19.187Z,16.22
2022-12-31T14:47:00.101Z,16.09
2022-12-31T14:49:39.745Z,16.10
2022-12-31T14:52:21.497Z,15.53
2022-12-31T14:54:59.389Z,15.80
2022-12-31T14:58:01.417Z,16.03
2022-12-31T15:00:31.173Z,16.14
2022-12-31T15:03:01.102Z,16.11
2022-12-31T15:05:30.722Z,16.22
2022-12-31T15:08:27.794Z,15.81
2022-12-31T15:11:12.668Z,15.89
2022-12-31T15:13:57.822Z,15.96
2022-12-31T15:16:39.817Z,15.65
2022-12-31T15:19:44.225Z,15.83
2022-12-31T15:22:25.954Z,15.81
2022-12-31T15:24:53.939Z,16.09
2022-12-31T15:27:35.081Z,15.95
2022-12-31T15:30:07.071Z,16.25
2022-12-31T15:32:38.114Z,16.07
2022-12-31T15:35:26.680Z,15.95
2022-12-31T15:38:02.220Z,15.84
2022-12-31T15:40:30.766Z,15.99
2022-12-31T15:43:03.906Z,15.59
2022-12-31T15:45:37.990Z,15.73
2022-12-31T15:48:14.848Z,16.24
2022-12-31T15:50:44.296Z,15.54
2022-12-31T15:53:25.793Z,15.82
2022-12-31T15:55:55.687Z,15.76
2022-12-31T15:58:27.820Z,16.09
2022-12-31T16:01:04.625Z,16.10
2022-12-31T16:03:33.229Z,15.69
2022-12-31T16:06:03.424Z,15.71
2022-12-31T16:08:33.288Z,16.02
2022-12-31T16:11:01.823Z,15.84
2022-12-31T16:13:31.429Z,16.04
2022-12-31T16:16:03.973Z,16.08
2022-12-31T16:18:39.295Z,15.79
2022-12-31T16:21:08.071Z,15.91
2022-12-31T16:23:42.135Z,15.75
2022-12-31T16:26:11.945Z,15.61
2022-12-31T16:28:39.824Z,16.07
2022-12-31T16:31:15.989Z,16.09
2022-12-31T16:33:43.704Z,16.03
2022-12-31T16:36:21.621Z,15.93
2022-12-31T16:38:49.950Z,15.69
2022-12-31T16:41:19.756Z,15.68
2022-12-31T16:43:48.844Z,15.57
2022-12-31T16:46:23.027Z,15.43
2022-12-31T16:48:56.451Z,15.65
2022-12-31T16:51:27.116Z,15.56
2022-12-31T16:53:55.523Z,15.78
2022-12-31T16:56:27.486Z,15.93
2022-12-31T16:59:03.009Z,15.63
2022-12-31T17:01:35.456Z,16.22
2022-12-31T17:04:06.062Z,15.82
2022-12-31T17:06:33.903Z,15.90
2022-12-31T17:09:14.748Z,15.83
2022-12-31T17:11:50.417Z,15.73
2022-12-31T17:14:22.977Z,16.05
2022-12-31T17:17:02.835Z,15.90
2022-12-31T17:19:38.777Z,15.71
2022-12-31T17:22:11.278Z,15.96
2022-12-31T17:24:40.241Z,15.91
2022-12-31T17:27:10.411Z,15.60
2022-12-31T17:29:38.320Z,15.56
2022-12-31T17:32:26.705Z,15.69
2022-12-31T17:34:54.757Z,15.84
2022-12-31T17:37:27.052Z,16.06
2022-12-31T17:40:17.029Z,16.23
2022-12-31T17:42:47.510Z,16.19
2022-12-31T17:45:20.939Z,16.35
2022-12-31T17:47:53.892Z,16.10
2022-12-31T17:50:23.734Z,15.82
2022-12-31T17:52:53.892Z,15.72
2022-12-31T17:55:21.565Z,16.26
2022-12-31T17:57:53.609Z,16.30
2022-12-31T18:00:24.251Z,15.71
2022-12-31T18:02:53.913Z,15.95
2022-12-31T18:05:23.007Z,16.09
2022-12-31T18:07:51.758Z,16.29
2022-12-31T18:10:21.881Z,16.33
2022-12-31T18:12:51.394Z,16.07
2022-12-31T18:15:25.133Z,16.35
2022-12-31T18:17:54.214Z,16.37
2022-12-31T18:20:22.001Z,16.29
2022-12-31T18:22:49.853Z,16.22
2022-12-31T18:25:20.733Z,16.48
2022-12-31T18:27:49.274Z,16.25
2022-12-31T18:30:17.743Z,16.50
2022-12-31T18:32:46.393Z,16.78
2022-12-31T18:35:48.637Z,16.49
2022-12-31T18:38:07.997Z,16.46
2022-12-31T18:40:35.853Z,16.69
2022-12-31T18:43:05.227Z,16.41
2022-12-31T18:45:33.165Z,16.40
2022-12-31T18:48:01.024Z,16.41
2022-12-31T18:50:30.184Z,16.50
2022-12-31T18:52:57.858Z,15.93
2022-12-31T18:55:33.202Z,16.04
2022-12-31T18:58:00.954Z,16.09
2022-12-31T19:00:28.680Z,16.03
2022-12-31T19:02:56.455Z,16.10
2022-12-31T19:05:26.813Z,16.23
2022-12-31T19:07:56.445Z,15.96
2022-12-31T19:10:24.666Z,16.13
2022-12-31T19:12:52.806Z,16.22
2022-12-31T19:15:30.255Z,16.05
2022-12-31T19:17:58.277Z,16.37
2022-12-31T19:20:26.326Z,16.34
2022-12-31T19:22:55.832Z,16.44
2022-12-31T19:25:25.796Z,16.29
2022-12-31T19:27:54.247Z,16.24
2022-12-31T19:30:25.785Z,15.82
2022-12-31T19:32:54.296Z,15.95
2022-12-31T19:35:23.155Z,16.17
2022-12-31T19:37:52.858Z,15.93
2022-12-31T19:40:25.190Z,16.06
2022-12-31T19:42:54.897Z,15.93
2022-12-31T19:45:24.437Z,15.65
2022-12-31T19:47:52.994Z,16.13
2022-12-31T19:50:22.989Z,16.03
2022-12-31T19:52:52.670Z,16.17
2022-12-31T19:55:23.226Z,15.94
2022-12-31T19:57:50.961Z,16.21
2022-12-31T20:00:20.788Z,16.22
2022-12-31T20:02:49.444Z,16.12
2022-12-31T20:05:19.443Z,16.26
2022-12-31T20:07:47.407Z,16.39
2022-12-31T20:10:15.660Z,16.08
2022-12-31T20:12:44.934Z,15.94
2022-12-31T20:15:13.007Z,16.14
2022-12-31T20:17:40.710Z,16.45
2022-12-31T20:20:09.306Z,16.54
2022-12-31T20:22:37.135Z,16.32
2022-12-31T20:25:05.364Z,16.53
2022-12-31T20:27:33.511Z,16.41
2022-12-31T20:30:02.648Z,16.50
2022-12-31T20:32:30.465Z,16.84
2022-12-31T20:34:58.389Z,16.35
2022-12-31T20:37:26.118Z,16.52
2022-12-31T20:39:53.797Z,16.46
2022-12-31T20:42:21.543Z,16.31
2022-12-31T20:44:49.239Z,16.40
2022-12-31T20:47:18.279Z,16.40
2022-12-31T20:50:10.447Z,16.25
2022-12-31T20:52:33.725Z,16.26
2022-12-31T20:55:01.399Z,16.70
2022-12-31T20:57:33.587Z,16.48
2022-12-31T21:00:01.896Z,16.67
2022-12-31T21:02:41.654Z,16.28
2022-12-31T21:05:11.202Z,16.47
2022-12-31T21:07:39.104Z,16.77
2022-12-31T21:10:07.620Z,16.69
2022-12-31T21:12:43.557Z,16.50
2022-12-31T21:15:12.255Z,16.79
2022-12-31T21:17:41.568Z,16.73
2022-12-31T21:20:10.353Z,16.48
2022-12-31T21:22:38.190Z,16.37
2022-12-31T21:25:06.604Z,16.57
2022-12-31T21:27:34.333Z,16.65
2022-12-31T21:30:18.117Z,16.74
2022-12-31T21:32:48.031Z,16.50
2022-12-31T21:38:04.304Z,16.71
2022-12-31T21:40:32.398Z,16.93
2022-12-31T21:43:00.149Z,17.06
2022-12-31T21:45:27.938Z,16.85
2022-12-31T21:48:17.084Z,17.02
2022-12-31T21:50:46.008Z,16.68
2022-12-31T21:53:16.537Z,17.00
2022-12-31T21:56:04.889Z,16.81
2022-12-31T21:58:32.707Z,16.99
2022-12-31T22:01:18.489Z,17.08
2022-12-31T22:03:47.707Z,16.59
2022-12-31T22:06:20.652Z,17.03
2022-12-31T22:08:50.602Z,16.91
2022-12-31T22:11:20.088Z,16.69
2022-12-31T22:13:48.757Z,16.64
2022-12-31T22:16:17.189Z,16.81
2022-12-31T22:18:45.157Z,17.01
2022-12-31T22:21:19.522Z,16.82
2022-12-31T22:23:49.588Z,17.02
2022-12-31T22:26:18.496Z,17.03
2022-12-31T22:28:47.091Z,16.74
2022-12-31T22:31:16.169Z,17.06
2022-12-31T22:33:44.585Z,16.90
2022-12-31T22:36:15.885Z,17.07
2022-12-31T22:38:47.099Z,16.93
2022-12-31T22:41:17.038Z,16.72
2022-12-31T22:43:46.569Z,16.96
2022-12-31T22:46:19.317Z,17.28
2022-12-31T22:48:47.420Z,16.98
2022-12-31T22:51:17.778Z,16.95
2022-12-31T22:53:46.237Z,17.15
2022-12-31T22:56:16.221Z,17.20
2022-12-31T22:58:44.446Z,16.96
2022-12-31T23:01:17.128Z,17.30
2022-12-31T23:03:45.200Z,17.06
2022-12-31T23:06:13.203Z,17.05
2022-12-31T23:09:02.865Z,17.34
2022-12-31T23:11:29.596Z,17.23
2022-12-31T23:14:14.761Z,17.36
2022-12-31T23:17:00.291Z,17.12
2022-12-31T23:20:05.677Z,17.08
2022-12-31T23:22:50.910Z,17.17
2022-12-31T23:25:20.341Z,17.21
2022-12-31T23:27:47.992Z,17.37
2022-12-31T23:30:15.748Z,17.37
2022-12-31T23:32:43.606Z,17.49
2022-12-31T23:35:11.376Z,17.38
2022-12-31T23:37:39.156Z,17.32
2022-12-31T23:40:08.350Z,17.01
2022-12-31T23:42:37.567Z,17.28
2022-12-31T23:45:05.958Z,17.25
2022-12-31T23:47:33.776Z,17.23
2022-12-31T23:50:01.456Z,17.20
2022-12-31T23:52:29.189Z,17.33
2022-12-31T23:54:56.891Z,17.19
2022-12-31T23:57:24.630Z,17.38
2022-12-31T23:59:53.716Z,17.27
